Rechercher aéroport 
image banner adimage banner adimage banner ad
image banner ad

23PA - Cedar Acres Private Group

Situé à Revere, United States

ICAO - 23PA, IATA -

Données fournies par Airmate  

Information générale

Coordonnées: N40°29'54" W75°8'50"
Élévation : 500 feet MSL.
Variation magnétique : -12° East
Voir autres Aéroports à Pennsylvania

Données opérationnelles

Special qualification required
Heure actuelle UTC:
Heure actuelle locale:
Météo à : KCKZ - Pennridge ( 17 km )
METAR: KCKZ 152135Z AUTO 32009G16KT 10SM FEW044 BKN090 22/13 A2980 RMK AO2
Voir NOTAMs / SUP AIP / TFR affectant cet aéroport [VIEW]
Fréquences de communication: [VIEW]

Pistes:

Identifiant RWYQFULongueur (ft)Largeur (ft)SurfaceLDA (ft)
N1800100GRASS
S1800100GRASS

Coordonnées de l'aéroport

Adresse: Revere United States

Vue satellite de 23PA